Time;durP1;ratioP1;P1;durP2;ratioP2;P2;SDS_P1;SDS_P2;PMS_P1;PMS_P2;Temp;Humidity;BMP_temperature;BMP_pressure;BME280_temperature;BME280_humidity;BME280_pressure;Samples;Min_cycle;Max_cycle;Signal;HPM_P1;HPM_P2
2022/05/26 00:00:36;;;;;;;13.07;3.80;;;14.00;99.90;;;;;;5091803;28;20074;-76
2022/05/26 00:03:02;;;;;;;;;;;14.10;99.90;;;;;;5075990;28;20048;-76
2022/05/26 00:05:28;;;;;;;12.52;3.10;;;14.00;99.90;;;;;;5091982;28;20429;-76
2022/05/26 00:07:54;;;;;;;12.75;3.80;;;14.10;99.90;;;;;;5091813;28;20044;-77
2022/05/26 00:10:21;;;;;;;12.95;3.67;;;13.90;99.90;;;;;;5091549;28;20059;-76
2022/05/26 00:12:46;;;;;;;;;;;13.90;99.90;;;;;;5092442;28;20040;-76
2022/05/26 00:15:13;;;;;;;10.98;3.20;;;14.00;99.90;;;;;;5091648;28;19923;-76
2022/05/26 00:17:39;;;;;;;11.10;3.17;;;14.00;99.90;;;;;;5091674;28;20048;-76
2022/05/26 00:20:06;;;;;;;13.40;4.00;;;13.90;99.90;;;;;;5091743;28;20048;-76
2022/05/26 00:22:32;;;;;;;12.38;3.25;;;13.90;99.90;;;;;;5074794;28;20048;-75
2022/05/26 00:24:57;;;;;;;10.10;3.40;;;14.00;99.90;;;;;;5091408;28;20085;-76
2022/05/26 00:27:23;;;;;;;11.10;3.60;;;14.00;99.90;;;;;;5074713;28;20044;-76
2022/05/26 00:29:49;;;;;;;12.90;3.70;;;14.00;99.90;;;;;;5091474;28;20131;-76
2022/05/26 00:32:15;;;;;;;12.27;3.78;;;13.90;99.90;;;;;;5074878;28;20113;-76
2022/05/26 00:34:40;;;;;;;13.38;3.35;;;13.90;99.90;;;;;;5091448;28;20162;-75
2022/05/26 00:37:08;;;;;;;16.02;4.63;;;13.90;99.90;;;;;;5091564;28;20059;-75
2022/05/26 00:39:33;;;;;;;15.48;3.90;;;13.90;99.90;;;;;;5092040;28;20052;-76
2022/05/26 00:42:01;;;;;;;11.80;3.38;;;13.90;99.90;;;;;;5091925;28;20548;-75
2022/05/26 00:44:28;;;;;;;13.50;3.85;;;13.90;99.90;;;;;;5091854;28;20055;-76
2022/05/26 00:47:17;;;;;;;13.48;4.03;;;13.80;99.90;;;;;;5091319;28;20048;-76
2022/05/26 00:49:56;;;;;;;13.52;3.72;;;13.80;99.90;;;;;;5092815;28;20456;-76
2022/05/26 00:52:45;;;;;;;18.05;4.38;;;13.80;99.90;;;;;;5091039;28;20510;-75
2022/05/26 00:55:20;;;;;;;14.13;3.70;;;13.80;99.90;;;;;;5091534;28;20360;-75
2022/05/26 00:57:52;;;;;;;12.43;3.20;;;13.70;99.90;;;;;;5090895;28;20044;-75
2022/05/26 01:00:23;;;;;;;18.08;4.25;;;13.80;99.90;;;;;;5090801;28;20048;-76
2022/05/26 01:03:10;;;;;;;17.17;4.50;;;13.70;99.90;;;;;;5091322;28;20048;-76
2022/05/26 01:05:46;;;;;;;13.35;3.80;;;13.80;99.90;;;;;;5074380;28;20463;-76
2022/05/26 01:08:22;;;;;;;13.60;3.63;;;13.60;99.90;;;;;;5090884;28;20123;-75
2022/05/26 01:10:48;;;;;;;18.80;4.50;;;13.70;99.90;;;;;;5091067;28;20044;-77
2022/05/26 01:13:18;;;;;;;17.63;4.28;;;13.70;99.90;;;;;;5090865;28;20416;-75
2022/05/26 01:15:51;;;;;;;13.15;3.60;;;13.80;99.90;;;;;;5090940;28;20044;-75
2022/05/26 01:18:48;;;;;;;16.38;4.40;;;13.70;99.90;;;;;;5090856;28;20155;-77
2022/05/26 01:21:24;;;;;;;14.83;3.93;;;13.80;99.90;;;;;;5076363;28;20056;-76
2022/05/26 01:24:25;;;;;;;14.95;3.63;;;13.70;99.90;;;;;;5073997;28;20043;-77
2022/05/26 01:27:20;;;;;;;13.88;4.20;;;13.70;99.90;;;;;;5090844;28;20059;-76
2022/05/26 01:30:31;;;;;;;17.80;4.45;;;13.80;99.90;;;;;;5064519;28;20433;-76
2022/05/26 01:33:16;;;;;;;9.45;3.20;;;13.70;99.90;;;;;;5087981;28;20052;-76
2022/05/26 01:36:08;;;;;;;11.98;3.08;;;13.80;99.90;;;;;;5089833;28;20039;-76
2022/05/26 01:38:49;;;;;;;16.00;3.95;;;13.70;99.90;;;;;;5074395;28;20576;-76
2022/05/26 01:41:36;;;;;;;13.98;3.50;;;13.70;99.90;;;;;;5090083;28;20040;-76
2022/05/26 01:44:20;;;;;;;17.48;3.80;;;13.60;99.90;;;;;;5090214;28;20082;-76
2022/05/26 01:46:47;;;;;;;14.52;4.38;;;13.80;99.90;;;;;;5073467;28;20075;-76
2022/05/26 01:49:37;;;;;;;16.95;3.50;;;13.70;99.90;;;;;;5090252;28;20048;-76
2022/05/26 01:52:17;;;;;;;12.77;3.25;;;13.70;99.90;;;;;;5090500;28;20055;-76
2022/05/26 01:54:52;;;;;;;15.15;3.38;;;13.70;99.90;;;;;;5090318;28;20054;-75
2022/05/26 01:57:53;;;;;;;12.15;2.78;;;13.80;99.90;;;;;;5090231;28;20091;-75
2022/05/26 02:00:20;;;;;;;14.32;3.47;;;13.70;99.90;;;;;;5081665;28;20107;-76
2022/05/26 02:03:21;;;;;;;11.48;2.97;;;13.80;99.90;;;;;;5107038;28;20510;-76
2022/05/26 02:05:59;;;;;;;7.75;2.60;;;13.70;99.90;;;;;;5106446;28;20402;-76
2022/05/26 02:08:33;;;;;;;5.45;2.05;;;13.70;99.90;;;;;;5092589;28;20036;-76
2022/05/26 02:11:21;;;;;;;9.15;2.45;;;13.70;99.90;;;;;;5111220;28;20108;-76
2022/05/26 02:13:58;;;;;;;9.23;2.55;;;13.70;99.90;;;;;;5109437;28;20224;-76
2022/05/26 02:16:54;;;;;;;9.02;2.40;;;13.70;99.90;;;;;;5109746;28;20519;-76
2022/05/26 02:19:35;;;;;;;10.80;3.20;;;13.60;99.90;;;;;;5109635;28;20039;-76
2022/05/26 02:22:07;;;;;;;11.15;2.90;;;13.70;99.90;;;;;;5109954;28;20072;-76
2022/05/26 02:24:53;;;;;;;13.23;3.72;;;13.60;99.90;;;;;;5093059;28;20081;-76
2022/05/26 02:27:20;;;;;;;10.50;3.33;;;13.60;99.90;;;;;;5109554;28;20083;-76
2022/05/26 02:29:52;;;;;;;;;;;13.50;99.90;;;;;;5110049;28;20074;-76
2022/05/26 02:32:35;;;;;;;14.85;3.33;;;13.50;99.90;;;;;;5093026;28;19986;-76
2022/05/26 02:35:06;;;;;;;16.05;3.70;;;13.50;99.90;;;;;;5092661;28;20080;-76
2022/05/26 02:37:34;;;;;;;10.95;3.15;;;13.50;99.90;;;;;;5109998;28;20135;-76
2022/05/26 02:40:00;;;;;;;14.10;3.15;;;13.50;99.90;;;;;;5110053;28;20075;-77
2022/05/26 02:42:26;;;;;;;10.35;2.40;;;13.50;99.90;;;;;;5110343;28;20056;-77
2022/05/26 02:44:52;;;;;;;7.85;2.45;;;13.50;99.90;;;;;;5093263;28;20048;-77
2022/05/26 02:47:42;;;;;;;13.60;3.28;;;13.40;99.90;;;;;;5093860;28;20048;-77
2022/05/26 02:50:07;;;;;;;12.65;3.25;;;13.40;99.90;;;;;;5116043;28;20120;-77
2022/05/26 02:53:01;;;;;;;13.30;3.42;;;13.30;99.90;;;;;;5115134;28;20048;-76
2022/05/26 02:55:37;;;;;;;11.77;3.80;;;13.40;99.90;;;;;;5114429;28;20104;-76
2022/05/26 02:58:46;;;;;;;12.27;3.13;;;13.30;99.90;;;;;;5114063;28;20467;-76
2022/05/26 03:01:22;;;;;;;9.75;2.60;;;13.20;99.90;;;;;;5108273;28;20047;-76
2022/05/26 03:03:52;;;;;;;15.38;3.83;;;13.10;99.90;;;;;;5115384;28;20360;-76
2022/05/26 03:06:47;;;;;;;10.45;3.38;;;13.20;99.90;;;;;;5113803;28;20503;-76
2022/05/26 03:09:13;;;;;;;9.90;2.42;;;13.20;99.90;;;;;;5113607;28;20092;-76
2022/05/26 03:11:51;;;;;;;9.00;2.50;;;13.00;99.90;;;;;;5097185;28;20410;-76
2022/05/26 03:14:18;;;;;;;9.80;2.88;;;13.10;99.90;;;;;;5097837;28;20386;-76
2022/05/26 03:16:44;;;;;;;14.23;3.90;;;13.20;99.90;;;;;;5114081;28;20058;-76
2022/05/26 03:19:11;;;;;;;13.05;3.70;;;13.10;99.90;;;;;;5114907;28;20027;-76
2022/05/26 03:21:36;;;;;;;16.90;4.07;;;13.10;99.90;;;;;;5114967;28;20047;-76
2022/05/26 03:24:03;;;;;;;13.20;3.70;;;13.00;99.90;;;;;;5117135;28;20039;-76
2022/05/26 03:26:29;;;;;;;13.73;3.33;;;13.10;99.90;;;;;;5116590;28;20455;-76
2022/05/26 03:28:54;;;;;;;14.45;3.67;;;13.00;99.90;;;;;;5098521;28;20075;-75
2022/05/26 03:31:20;;;;;;;12.95;3.10;;;13.00;99.90;;;;;;5112932;28;20040;-75
2022/05/26 03:41:59;;;;;;;13.43;2.72;;;12.90;99.90;;;;;;5113094;28;20146;-75
2022/05/26 03:44:28;;;;;;;9.13;2.80;;;12.90;99.90;;;;;;5095933;28;20047;-76
2022/05/26 03:46:54;;;;;;;8.50;2.55;;;12.90;99.90;;;;;;5112379;28;20047;-76
2022/05/26 03:49:19;;;;;;;;;;;12.80;99.90;;;;;;5113342;28;20127;-76
2022/05/26 03:51:45;;;;;;;9.88;2.33;;;12.80;99.90;;;;;;5114143;28;19996;-76
2022/05/26 03:54:11;;;;;;;9.43;2.60;;;12.80;99.90;;;;;;5112323;28;20044;-76
2022/05/26 03:56:36;;;;;;;8.43;2.08;;;12.80;99.90;;;;;;5112591;28;20063;-76
2022/05/26 03:59:02;;;;;;;7.78;2.00;;;12.80;99.90;;;;;;5111608;28;20533;-76
2022/05/26 04:01:28;;;;;;;7.25;1.77;;;12.70;99.90;;;;;;5112645;28;20131;-76
2022/05/26 04:03:55;;;;;;;11.50;2.30;;;12.80;99.90;;;;;;5112899;28;20055;-77
2022/05/26 04:06:22;;;;;;;8.20;1.95;;;12.80;99.90;;;;;;5112636;28;20058;-76
2022/05/26 04:08:48;;;;;;;6.53;1.52;;;12.80;99.90;;;;;;5095620;28;20044;-76
2022/05/26 04:11:15;;;;;;;8.95;1.92;;;12.80;99.90;;;;;;5112631;28;20154;-76
2022/05/26 04:13:41;;;;;;;7.22;1.50;;;12.80;99.90;;;;;;5095140;28;20079;-76
2022/05/26 04:16:07;;;;;;;5.70;1.60;;;12.90;99.90;;;;;;5095212;28;20062;-76
2022/05/26 04:18:34;;;;;;;6.40;1.40;;;12.90;99.90;;;;;;5111925;28;20043;-76
2022/05/26 04:21:07;;;;;;;8.70;1.70;;;12.90;99.90;;;;;;5112014;28;20108;-75
2022/05/26 04:23:33;;;;;;;5.70;1.35;;;12.80;99.90;;;;;;5111741;28;20402;-75
2022/05/26 04:25:59;;;;;;;7.15;1.75;;;13.00;99.90;;;;;;5111632;28;20054;-76
2022/05/26 04:28:25;;;;;;;4.97;1.30;;;12.90;99.90;;;;;;5111725;28;20040;-76
2022/05/26 04:30:50;;;;;;;8.02;1.40;;;12.90;99.90;;;;;;5111336;28;20039;-75
2022/05/26 04:33:16;;;;;;;7.18;1.60;;;12.90;99.90;;;;;;5113369;28;20035;-75
2022/05/26 04:35:42;;;;;;;6.40;1.55;;;12.90;99.90;;;;;;5077880;28;20110;-76
2022/05/26 04:38:08;;;;;;;5.15;1.70;;;12.90;99.90;;;;;;5111518;28;20051;-76
2022/05/26 04:40:33;;;;;;;6.10;1.33;;;12.80;99.90;;;;;;5111700;28;20491;-76
2022/05/26 04:42:59;;;;;;;4.57;1.30;;;12.80;99.90;;;;;;5112754;28;20377;-75
2022/05/26 04:45:25;;;;;;;3.88;1.00;;;12.90;99.90;;;;;;5111291;28;20057;-75
2022/05/26 04:47:52;;;;;;;5.32;1.20;;;12.80;99.90;;;;;;5111243;28;20039;-75
2022/05/26 04:50:18;;;;;;;5.50;1.17;;;12.90;99.90;;;;;;5111402;28;20051;-76
2022/05/26 04:52:44;;;;;;;;;;;12.80;99.90;;;;;;5112217;28;20044;-77
2022/05/26 04:55:10;;;;;;;6.78;1.30;;;12.90;99.90;;;;;;5095242;28;19938;-77
2022/05/26 04:57:36;;;;;;;6.20;1.10;;;12.90;99.90;;;;;;5111680;28;20048;-76
2022/05/26 05:00:05;;;;;;;2.92;1.17;;;12.90;99.90;;;;;;5111968;28;20040;-76
2022/05/26 05:02:31;;;;;;;4.22;1.10;;;12.90;99.90;;;;;;5093877;28;20131;-76
2022/05/26 05:04:57;;;;;;;6.95;1.20;;;13.00;99.90;;;;;;5110968;28;20497;-76
2022/05/26 05:07:22;;;;;;;9.27;1.50;;;13.00;99.90;;;;;;5093603;28;20404;-75
2022/05/26 05:09:48;;;;;;;8.20;1.35;;;13.00;99.90;;;;;;5111739;28;20066;-75
2022/05/26 05:12:17;;;;;;;3.17;1.00;;;13.00;99.90;;;;;;5110585;28;20043;-76
2022/05/26 05:14:45;;;;;;;4.47;1.08;;;13.10;99.90;;;;;;5110441;28;20044;-75
2022/05/26 05:17:11;;;;;;;7.30;1.25;;;13.10;99.90;;;;;;5110482;28;20126;-76
2022/05/26 05:19:37;;;;;;;5.82;1.27;;;13.20;99.90;;;;;;5110109;28;20118;-75
2022/05/26 05:22:35;;;;;;;4.90;1.17;;;13.20;99.90;;;;;;5110504;28;20047;-76
2022/05/26 05:25:12;;;;;;;4.07;0.95;;;13.20;99.90;;;;;;5111977;27;20115;-75
2022/05/26 05:27:45;;;;;;;5.43;1.10;;;13.20;99.90;;;;;;5111870;28;20116;-76
2022/05/26 05:30:20;;;;;;;3.72;0.90;;;13.30;99.90;;;;;;5110730;28;20475;-77
2022/05/26 05:32:52;;;;;;;5.25;1.45;;;13.40;99.90;;;;;;5110843;28;20039;-77
2022/05/26 05:35:26;;;;;;;5.40;1.20;;;13.40;99.90;;;;;;5110353;28;20168;-76
2022/05/26 05:37:52;;;;;;;3.88;0.98;;;13.50;99.90;;;;;;5111969;28;20107;-76
2022/05/26 05:40:18;;;;;;;7.95;1.55;;;13.50;99.90;;;;;;5093260;28;20051;-77
2022/05/26 05:42:44;;;;;;;3.60;1.00;;;13.60;99.90;;;;;;5111625;28;20045;-77
2022/05/26 05:45:10;;;;;;;5.60;1.13;;;13.70;99.90;;;;;;5111914;28;20039;-77
2022/05/26 05:47:36;;;;;;;6.88;1.15;;;13.70;99.90;;;;;;5110364;28;20047;-76
2022/05/26 05:50:02;;;;;;;4.15;0.90;;;13.80;99.90;;;;;;5111613;28;20039;-76
2022/05/26 05:52:28;;;;;;;6.60;1.08;;;13.80;99.90;;;;;;5110302;28;20039;-76
2022/05/26 05:54:58;;;;;;;4.75;1.33;;;14.00;99.90;;;;;;5109935;28;20061;-76
2022/05/26 05:57:23;;;;;;;5.40;1.20;;;14.10;99.90;;;;;;5110520;28;20075;-76
2022/05/26 05:59:49;;;;;;;7.10;1.35;;;14.30;99.90;;;;;;5110407;28;20102;-77
2022/05/26 06:02:15;;;;;;;4.25;0.98;;;14.30;99.90;;;;;;5110269;28;20046;-76
2022/05/26 06:04:43;;;;;;;3.70;1.00;;;14.40;99.90;;;;;;5111685;28;20039;-76
2022/05/26 06:07:15;;;;;;;5.20;1.35;;;14.60;99.90;;;;;;5110462;28;20039;-76
2022/05/26 06:09:41;;;;;;;5.43;1.13;;;14.80;99.90;;;;;;5110392;28;20052;-75
2022/05/26 06:12:07;;;;;;;;;;;15.30;99.90;;;;;;5110645;28;20517;-75
2022/05/26 06:14:33;;;;;;;3.50;0.88;;;15.50;99.90;;;;;;5110781;28;20274;-75
2022/05/26 06:17:00;;;;;;;5.60;1.10;;;15.80;99.90;;;;;;5110370;28;20047;-76
2022/05/26 06:19:26;;;;;;;4.80;1.15;;;16.20;99.90;;;;;;5093561;28;20453;-75
2022/05/26 06:21:52;;;;;;;3.47;1.02;;;16.40;99.90;;;;;;5110031;28;20123;-76
2022/05/26 06:24:22;;;;;;;4.13;0.82;;;16.50;99.90;;;;;;5111678;28;20126;-76
2022/05/26 06:26:49;;;;;;;3.38;0.98;;;16.80;99.90;;;;;;5111695;28;20048;-76
2022/05/26 06:37:28;;;;;;;4.70;1.10;;;16.40;99.90;;;;;;5110358;28;20120;-76
2022/05/26 06:39:55;;;;;;;5.53;1.35;;;16.00;99.90;;;;;;5093256;28;20039;-76
2022/05/26 06:42:24;;;;;;;4.88;1.33;;;15.90;99.90;;;;;;5109404;28;20063;-77
2022/05/26 06:44:50;;;;;;;3.42;0.80;;;15.60;99.90;;;;;;5110861;28;20036;-76
2022/05/26 06:47:19;;;;;;;5.65;0.90;;;15.50;99.90;;;;;;5109316;28;20509;-76
2022/05/26 06:49:48;;;;;;;3.00;1.00;;;15.50;99.90;;;;;;5109770;28;20111;-77
2022/05/26 06:52:15;;;;;;;2.95;0.70;;;15.50;99.90;;;;;;5109517;28;20039;-76
2022/05/26 06:54:43;;;;;;;3.88;1.00;;;15.50;99.90;;;;;;5109490;28;20043;-75
2022/05/26 06:57:11;;;;;;;4.30;1.00;;;15.50;99.90;;;;;;5092744;28;20147;-75
2022/05/26 06:59:37;;;;;;;4.53;1.20;;;15.30;99.90;;;;;;5092776;28;20048;-75
2022/05/26 07:02:09;;;;;;;3.92;0.70;;;15.30;99.90;;;;;;5109893;28;20043;-75
2022/05/26 07:04:34;;;;;;;3.08;0.80;;;15.30;99.90;;;;;;5109811;28;20104;-76
2022/05/26 07:07:01;;;;;;;4.95;1.40;;;15.10;99.90;;;;;;5110794;28;20123;-75
2022/05/26 07:09:27;;;;;;;4.05;0.95;;;15.10;99.90;;;;;;5109021;28;20124;-75
2022/05/26 07:11:53;;;;;;;4.18;0.90;;;15.10;99.90;;;;;;5109295;28;20051;-76
2022/05/26 07:14:20;;;;;;;3.65;0.93;;;15.10;99.90;;;;;;5109617;28;20131;-76
2022/05/26 07:16:46;;;;;;;3.28;0.90;;;15.20;99.90;;;;;;5092622;28;20044;-75
2022/05/26 07:19:13;;;;;;;3.83;0.82;;;15.40;99.90;;;;;;5109220;28;20052;-75
2022/05/26 07:21:43;;;;;;;5.03;0.90;;;15.40;99.90;;;;;;5092249;28;20059;-76
2022/05/26 07:24:09;;;;;;;4.80;1.10;;;15.50;99.90;;;;;;5092106;28;20048;-76
2022/05/26 07:26:34;;;;;;;;;;;15.60;99.90;;;;;;5109182;28;20092;-76
2022/05/26 07:29:00;;;;;;;5.18;1.05;;;15.60;99.90;;;;;;5110217;28;19916;-75
2022/05/26 07:31:27;;;;;;;6.32;1.20;;;15.60;99.90;;;;;;5109261;28;20056;-76
2022/05/26 07:33:53;;;;;;;5.97;1.02;;;15.60;99.90;;;;;;5108690;28;20047;-76
2022/05/26 07:41:53;;;;;;;3.95;0.77;;;15.90;99.90;;;;;;5112417;28;20082;-76
2022/05/26 07:44:19;;;;;;;3.60;0.90;;;16.00;99.90;;;;;;5112207;28;20495;-75
2022/05/26 07:46:44;;;;;;;7.28;1.45;;;16.00;99.90;;;;;;5095319;28;20036;-76
2022/05/26 07:49:12;;;;;;;3.40;1.20;;;16.10;99.90;;;;;;5112295;28;20047;-76
2022/05/26 07:51:37;;;;;;;4.47;1.00;;;16.10;99.90;;;;;;5095586;28;20040;-75
2022/05/26 07:54:03;;;;;;;3.55;0.77;;;16.10;99.90;;;;;;5112495;28;20551;-76
2022/05/26 07:56:36;;;;;;;4.63;1.05;;;16.20;99.90;;;;;;5112473;28;20509;-76
2022/05/26 07:59:04;;;;;;;5.57;1.05;;;16.00;99.90;;;;;;5112111;28;20538;-77
2022/05/26 08:01:31;;;;;;;7.47;1.23;;;16.10;99.90;;;;;;5112065;28;20044;-77
2022/05/26 08:03:56;;;;;;;7.50;1.35;;;16.10;99.90;;;;;;5111953;28;20054;-76
2022/05/26 08:06:22;;;;;;;5.72;1.15;;;16.00;99.90;;;;;;5111762;28;20043;-77
2022/05/26 08:08:48;;;;;;;5.20;1.20;;;16.00;99.90;;;;;;5112387;28;20127;-76
2022/05/26 08:11:14;;;;;;;;;;;16.00;99.90;;;;;;5112662;28;20067;-77
2022/05/26 08:13:40;;;;;;;6.57;1.38;;;16.10;99.90;;;;;;5111886;28;20450;-76
2022/05/26 08:16:06;;;;;;;4.00;1.00;;;16.10;99.90;;;;;;5111918;28;20047;-76
2022/05/26 08:18:33;;;;;;;4.05;0.77;;;16.00;99.90;;;;;;5111979;28;20058;-75
2022/05/26 08:21:11;;;;;;;5.57;1.10;;;15.80;99.90;;;;;;5112101;28;20055;-76
2022/05/26 08:23:37;;;;;;;6.65;1.00;;;16.00;99.90;;;;;;5111909;28;20039;-76
2022/05/26 08:26:04;;;;;;;3.85;1.00;;;16.10;99.90;;;;;;5111590;28;20060;-76
2022/05/26 08:28:30;;;;;;;2.65;0.70;;;16.20;99.90;;;;;;5111300;28;20487;-76
2022/05/26 08:30:56;;;;;;;4.38;1.00;;;16.40;99.90;;;;;;5111665;28;20048;-76
2022/05/26 08:33:23;;;;;;;3.35;0.88;;;16.50;99.90;;;;;;5111173;28;20042;-76
2022/05/26 08:35:48;;;;;;;;;;;16.50;99.90;;;;;;5112118;28;20051;-76
2022/05/26 08:38:14;;;;;;;6.15;1.33;;;16.50;99.90;;;;;;5095365;28;20084;-76
2022/05/26 08:40:51;;;;;;;3.35;0.90;;;16.80;99.90;;;;;;5112108;28;20399;-76
2022/05/26 08:43:20;;;;;;;3.42;0.73;;;17.00;99.90;;;;;;5112137;28;20035;-77
2022/05/26 08:45:49;;;;;;;4.70;1.10;;;17.10;99.90;;;;;;5098618;28;20071;-78
2022/05/26 08:48:39;;;;;;;4.50;0.98;;;17.10;99.90;;;;;;5106600;28;20052;-75
2022/05/26 08:51:07;;;;;;;6.25;1.20;;;16.90;99.90;;;;;;5096521;28;20051;-76
2022/05/26 08:53:39;;;;;;;3.40;1.10;;;16.60;99.90;;;;;;5101575;28;20047;-78
2022/05/26 08:56:08;;;;;;;3.92;0.88;;;16.90;99.90;;;;;;5098524;28;20036;-77
2022/05/26 08:58:42;;;;;;;3.88;1.05;;;17.30;99.90;;;;;;5097877;28;20052;-80
2022/05/26 09:01:11;;;;;;;4.57;0.98;;;17.50;99.90;;;;;;5102832;28;20043;-79
2022/05/26 09:03:36;;;;;;;4.75;1.02;;;17.50;99.90;;;;;;5074459;28;20051;-79
2022/05/26 09:06:02;;;;;;;;;;;17.90;99.90;;;;;;5093847;28;20047;-79
2022/05/26 09:14:03;;;;;;;5.05;0.98;;;16.90;99.90;;;;;;5109472;28;20126;-72
2022/05/26 09:16:31;;;;;;;;;;;17.20;99.90;;;;;;5092431;28;20464;-72
2022/05/26 09:19:30;;;;;;;4.32;0.85;;;17.70;99.90;;;;;;5089215;28;20355;-72
2022/05/26 09:21:57;;;;;;;4.75;0.88;;;18.10;99.90;;;;;;5107383;28;20086;-71
2022/05/26 09:24:31;;;;;;;;;;;18.30;99.90;;;;;;5110714;28;20089;-71
2022/05/26 09:27:25;;;;;;;3.25;0.80;;;18.00;99.90;;;;;;5105713;28;20275;-72
2022/05/26 09:29:51;;;;;;;3.28;0.88;;;18.20;99.90;;;;;;5089771;28;20036;-73
2022/05/26 09:32:17;;;;;;;;;;;18.60;99.90;;;;;;5090539;28;20527;-72
2022/05/26 09:35:00;;;;;;;4.23;1.00;;;18.50;99.20;;;;;;5098470;28;19923;-72
2022/05/26 09:37:44;;;;;;;2.92;0.80;;;18.30;99.90;;;;;;5110055;28;20047;-74
2022/05/26 09:40:25;;;;;;;4.57;1.00;;;18.10;99.20;;;;;;5109696;28;20043;-73
2022/05/26 09:43:16;;;;;;;5.45;0.90;;;17.80;99.50;;;;;;5110071;28;20052;-73
2022/05/26 09:45:44;;;;;;;3.25;0.80;;;17.40;99.90;;;;;;5102323;28;20082;-72
2022/05/26 09:48:27;;;;;;;3.40;0.88;;;17.30;99.90;;;;;;5109947;28;20047;-71
2022/05/26 09:51:03;;;;;;;4.03;0.70;;;17.40;99.90;;;;;;5111009;28;20471;-72
2022/05/26 09:53:41;;;;;;;2.45;0.80;;;17.10;99.90;;;;;;5092741;28;20189;-70
2022/05/26 09:56:10;;;;;;;3.88;0.70;;;17.20;99.70;;;;;;5092771;28;20043;-70
2022/05/26 09:58:45;;;;;;;4.07;0.80;;;17.50;99.90;;;;;;5091628;28;20044;-70
2022/05/26 10:01:23;;;;;;;2.10;0.80;;;17.60;98.80;;;;;;5110970;28;20600;-70
2022/05/26 10:04:04;;;;;;;3.75;0.68;;;17.60;97.60;;;;;;5091973;28;20043;-71
2022/05/26 10:06:32;;;;;;;2.78;0.88;;;17.50;97.40;;;;;;5094733;28;20040;-71
2022/05/26 10:09:38;;;;;;;2.67;0.77;;;18.00;98.10;;;;;;5089768;28;20040;-72
2022/05/26 10:12:06;;;;;;;5.57;1.02;;;17.70;97.60;;;;;;5098577;28;20100;-72
2022/05/26 10:14:59;;;;;;;4.43;0.80;;;17.90;97.50;;;;;;5089338;28;20032;-72
2022/05/26 10:17:43;;;;;;;4.88;0.90;;;18.00;98.40;;;;;;5074806;28;20063;-72
2022/05/26 10:20:30;;;;;;;4.03;0.75;;;17.80;97.80;;;;;;5109272;28;20043;-71
2022/05/26 10:23:26;;;;;;;3.53;0.75;;;17.80;98.50;;;;;;5105490;28;20054;-71
2022/05/26 10:26:12;;;;;;;2.38;0.60;;;17.60;98.20;;;;;;5104829;28;20089;-72
2022/05/26 10:28:53;;;;;;;3.03;0.70;;;17.80;99.90;;;;;;5104939;28;20454;-73
2022/05/26 10:31:34;;;;;;;3.13;0.70;;;18.40;99.70;;;;;;5108922;28;20506;-72
2022/05/26 10:34:24;;;;;;;3.10;0.70;;;18.40;97.90;;;;;;5106767;28;20098;-71
2022/05/26 10:37:19;;;;;;;3.17;0.82;;;18.70;98.60;;;;;;5088662;28;20048;-71
2022/05/26 10:40:07;;;;;;;4.82;1.05;;;18.90;97.40;;;;;;5079383;28;20491;-71
2022/05/26 10:42:52;;;;;;;3.17;0.80;;;18.80;98.20;;;;;;5073509;28;20048;-71
2022/05/26 10:45:20;;;;;;;5.43;1.17;;;18.40;99.30;;;;;;5098370;28;20035;-71
2022/05/26 10:48:05;;;;;;;5.78;1.00;;;18.40;99.90;;;;;;5075497;28;20458;-71
2022/05/26 10:50:49;;;;;;;5.30;0.80;;;18.20;99.90;;;;;;5090028;28;20454;-71
2022/05/26 10:53:27;;;;;;;3.22;0.95;;;18.40;99.90;;;;;;5102369;28;20047;-71
2022/05/26 10:56:05;;;;;;;2.22;0.80;;;18.60;99.30;;;;;;5106958;28;20028;-72
2022/05/26 10:58:34;;;;;;;4.43;0.85;;;18.70;99.50;;;;;;5108179;28;20052;-71
2022/05/26 11:01:13;;;;;;;3.83;0.82;;;18.90;99.90;;;;;;5106913;28;20505;-71
2022/05/26 11:03:48;;;;;;;3.97;1.00;;;18.50;99.90;;;;;;5105982;28;20043;-71
2022/05/26 11:06:35;;;;;;;2.17;0.68;;;18.60;99.90;;;;;;5107685;28;20391;-71
2022/05/26 11:09:09;;;;;;;;;;;18.50;99.90;;;;;;5110466;28;20086;-71
2022/05/26 11:12:05;;;;;;;3.38;0.90;;;18.60;99.90;;;;;;5110115;28;19980;-70
2022/05/26 11:18:07;;;;;;;2.60;0.77;;;18.40;98.30;;;;;;5100176;28;20158;-72
2022/05/26 11:20:41;;;;;;;3.78;0.63;;;18.20;98.60;;;;;;5101474;28;20062;-72
2022/05/26 11:23:08;;;;;;;6.22;1.15;;;18.20;99.70;;;;;;5099345;28;20477;-72
2022/05/26 11:25:56;;;;;;;;;;;18.10;99.90;;;;;;5075657;28;20139;-72
2022/05/26 11:28:30;;;;;;;2.38;0.75;;;18.10;99.90;;;;;;5085263;28;19984;-72
2022/05/26 11:36:55;;;;;;;4.30;1.10;;;18.40;99.90;;;;;;5091342;28;20055;-71
2022/05/26 11:39:38;;;;;;;3.42;0.82;;;18.30;99.90;;;;;;5077939;28;20051;-71
2022/05/26 11:42:07;;;;;;;4.90;0.98;;;18.30;99.90;;;;;;5100691;28;20542;-71
2022/05/26 11:44:53;;;;;;;3.25;0.80;;;18.30;99.90;;;;;;5092717;28;20035;-71
2022/05/26 11:47:47;;;;;;;4.60;1.05;;;18.40;99.90;;;;;;5093124;28;20071;-71
2022/05/26 11:50:27;;;;;;;4.55;0.82;;;18.50;99.90;;;;;;5074962;28;20120;-72
2022/05/26 11:52:53;;;;;;;4.28;1.05;;;18.50;99.90;;;;;;5092167;28;20055;-71
2022/05/26 11:55:26;;;;;;;;;;;18.40;99.90;;;;;;5091532;28;20044;-71
2022/05/26 11:57:54;;;;;;;5.55;1.00;;;18.80;99.90;;;;;;5093408;28;20283;-71
2022/05/26 12:00:38;;;;;;;3.95;0.90;;;18.80;99.90;;;;;;5092197;28;20079;-71
2022/05/26 12:03:24;;;;;;;3.72;0.90;;;18.70;99.10;;;;;;5092135;28;20118;-72
2022/05/26 12:06:13;;;;;;;3.00;0.80;;;18.90;99.90;;;;;;5086063;28;20383;-71
2022/05/26 12:08:51;;;;;;;4.43;0.85;;;19.00;99.90;;;;;;5077990;28;20516;-71
2022/05/26 12:11:19;;;;;;;3.22;0.90;;;19.10;99.90;;;;;;5082447;28;20044;-71
2022/05/26 12:13:58;;;;;;;3.90;0.80;;;19.10;99.90;;;;;;5089959;28;20087;-72
2022/05/26 12:16:27;;;;;;;3.00;0.88;;;19.50;99.90;;;;;;5090081;28;20055;-70
2022/05/26 12:19:04;;;;;;;2.08;0.70;;;19.60;96.70;;;;;;5090203;28;20054;-70
2022/05/26 12:21:30;;;;;;;6.15;1.27;;;19.50;97.80;;;;;;5074699;28;20048;-70
2022/05/26 12:23:56;;;;;;;;;;;19.30;98.00;;;;;;5091068;28;20032;-70
2022/05/26 12:26:24;;;;;;;2.45;0.60;;;19.20;99.70;;;;;;5092432;28;19916;-70
2022/05/26 12:28:49;;;;;;;4.70;0.85;;;19.30;99.60;;;;;;5103976;28;20173;-70
2022/05/26 12:31:15;;;;;;;;;;;19.00;99.70;;;;;;5097405;28;20064;-77
2022/05/26 12:34:02;;;;;;;4.13;1.20;;;18.60;99.90;;;;;;5090241;28;20702;-76
2022/05/26 12:36:58;;;;;;;5.15;1.08;;;18.40;99.90;;;;;;5091210;28;20039;-76
2022/05/26 12:39:35;;;;;;;3.50;1.17;;;18.30;99.90;;;;;;5096934;28;20056;-76
2022/05/26 12:42:22;;;;;;;4.32;1.00;;;18.30;99.90;;;;;;5092381;28;20035;-73
2022/05/26 12:45:07;;;;;;;4.22;1.00;;;18.40;99.90;;;;;;5086758;28;20067;-73
2022/05/26 12:48:04;;;;;;;3.05;0.85;;;18.50;99.90;;;;;;5092268;28;20632;-71
2022/05/26 12:50:31;;;;;;;6.70;1.08;;;18.40;99.90;;;;;;5099170;28;20332;-72
2022/05/26 12:53:08;;;;;;;5.35;1.13;;;18.60;99.90;;;;;;5090620;28;20043;-71
2022/05/26 12:55:46;;;;;;;5.57;1.45;;;18.30;99.90;;;;;;5104509;28;20062;-70
2022/05/26 12:58:20;;;;;;;5.75;1.30;;;18.30;99.90;;;;;;5094145;28;20051;-70
2022/05/26 13:00:56;;;;;;;3.65;1.00;;;18.00;99.90;;;;;;5089015;28;20044;-70
2022/05/26 13:03:30;;;;;;;5.07;1.30;;;17.90;99.90;;;;;;5095736;28;20044;-71
2022/05/26 13:06:07;;;;;;;4.68;0.90;;;18.30;99.90;;;;;;5076952;28;20043;-70
2022/05/26 13:08:49;;;;;;;4.10;0.93;;;18.40;99.90;;;;;;5089000;28;20399;-71
2022/05/26 13:11:19;;;;;;;3.67;0.95;;;18.30;99.90;;;;;;5090203;28;20152;-71
2022/05/26 13:13:48;;;;;;;3.03;0.77;;;17.70;99.90;;;;;;5089640;28;20089;-71
2022/05/26 13:16:23;;;;;;;2.72;0.80;;;17.50;99.90;;;;;;5090056;28;20101;-71
2022/05/26 13:18:50;;;;;;;4.00;1.05;;;17.50;99.90;;;;;;5093574;28;20055;-71
2022/05/26 13:21:22;;;;;;;3.03;0.70;;;17.70;99.90;;;;;;5090456;28;20048;-73
2022/05/26 13:23:50;;;;;;;4.88;1.00;;;18.00;99.90;;;;;;5099963;28;20120;-72
2022/05/26 13:26:18;;;;;;;3.45;0.95;;;17.90;99.90;;;;;;5104670;28;20136;-75
2022/05/26 13:28:53;;;;;;;4.43;0.85;;;18.10;99.90;;;;;;5096481;28;20032;-73
2022/05/26 13:34:06;;;;;;;;;;;17.80;99.90;;;;;;5110623;28;20139;-73
2022/05/26 13:36:36;;;;;;;4.03;1.05;;;17.90;99.90;;;;;;5109861;28;20335;-73
2022/05/26 13:39:11;;;;;;;4.20;1.00;;;17.90;99.90;;;;;;5108476;28;20114;-72
2022/05/26 13:41:39;;;;;;;6.32;1.00;;;18.00;99.90;;;;;;5071922;28;20035;-73
2022/05/26 13:44:08;;;;;;;4.20;1.00;;;17.70;99.90;;;;;;5087982;28;20047;-73
2022/05/26 13:46:40;;;;;;;5.55;1.20;;;17.70;99.90;;;;;;5090422;28;20046;-73
2022/05/26 13:49:34;;;;;;;4.43;1.10;;;17.70;99.90;;;;;;5089481;28;20119;-73
2022/05/26 13:52:24;;;;;;;4.63;1.05;;;17.80;99.90;;;;;;5087577;28;20059;-72
2022/05/26 13:54:53;;;;;;;5.65;1.08;;;17.70;99.90;;;;;;5089098;28;20055;-73
2022/05/26 13:57:30;;;;;;;7.20;1.30;;;17.70;99.90;;;;;;5089465;28;20109;-73
2022/05/26 14:00:05;;;;;;;4.72;1.27;;;17.90;99.90;;;;;;5089554;28;20188;-73